sensor_id;sensor_type;location;lat;lon;timestamp;temperature;humidity
25128;DHT22;13107;51.304;6.866;2024-03-25T00:01:31;6.00;99.90
25128;DHT22;13107;51.304;6.866;2024-03-25T00:05:32;5.90;99.90
25128;DHT22;13107;51.304;6.866;2024-03-25T00:09:33;5.90;99.90
25128;DHT22;13107;51.304;6.866;2024-03-25T00:13:34;6.00;99.90
25128;DHT22;13107;51.304;6.866;2024-03-25T00:17:35;6.10;99.90
25128;DHT22;13107;51.304;6.866;2024-03-25T00:21:35;6.00;99.90
25128;DHT22;13107;51.304;6.866;2024-03-25T00:25:36;5.80;99.90
25128;DHT22;13107;51.304;6.866;2024-03-25T00:29:37;5.80;99.90
25128;DHT22;13107;51.304;6.866;2024-03-25T00:33:38;5.80;99.90
25128;DHT22;13107;51.304;6.866;2024-03-25T00:37:39;5.70;99.90
25128;DHT22;13107;51.304;6.866;2024-03-25T00:41:40;5.70;99.90
25128;DHT22;13107;51.304;6.866;2024-03-25T00:45:40;5.60;99.90
25128;DHT22;13107;51.304;6.866;2024-03-25T00:49:42;5.60;99.90
25128;DHT22;13107;51.304;6.866;2024-03-25T00:53:43;5.60;99.90
25128;DHT22;13107;51.304;6.866;2024-03-25T00:57:44;5.60;99.90
25128;DHT22;13107;51.304;6.866;2024-03-25T01:01:44;5.50;99.90
25128;DHT22;13107;51.304;6.866;2024-03-25T01:05:45;5.40;99.90
25128;DHT22;13107;51.304;6.866;2024-03-25T01:09:46;5.40;99.90
25128;DHT22;13107;51.304;6.866;2024-03-25T01:13:48;5.50;99.90
25128;DHT22;13107;51.304;6.866;2024-03-25T01:17:49;5.40;99.90
25128;DHT22;13107;51.304;6.866;2024-03-25T01:21:50;5.40;99.90
25128;DHT22;13107;51.304;6.866;2024-03-25T01:25:51;5.30;99.90
25128;DHT22;13107;51.304;6.866;2024-03-25T01:29:51;5.20;99.90
25128;DHT22;13107;51.304;6.866;2024-03-25T01:33:53;5.10;99.90
25128;DHT22;13107;51.304;6.866;2024-03-25T01:37:53;5.00;99.90
25128;DHT22;13107;51.304;6.866;2024-03-25T01:41:54;4.90;99.90
25128;DHT22;13107;51.304;6.866;2024-03-25T01:45:55;5.00;99.90
25128;DHT22;13107;51.304;6.866;2024-03-25T01:49:56;4.90;99.90
25128;DHT22;13107;51.304;6.866;2024-03-25T01:53:59;5.00;99.90
25128;DHT22;13107;51.304;6.866;2024-03-25T01:58:01;5.00;99.90
25128;DHT22;13107;51.304;6.866;2024-03-25T02:02:03;4.90;99.90
25128;DHT22;13107;51.304;6.866;2024-03-25T02:06:07;4.80;99.90
25128;DHT22;13107;51.304;6.866;2024-03-25T02:10:10;4.70;99.90
25128;DHT22;13107;51.304;6.866;2024-03-25T02:14:12;4.70;99.90
25128;DHT22;13107;51.304;6.866;2024-03-25T02:18:13;4.60;99.90
25128;DHT22;13107;51.304;6.866;2024-03-25T02:22:16;4.60;99.90
25128;DHT22;13107;51.304;6.866;2024-03-25T02:26:17;4.60;99.90
25128;DHT22;13107;51.304;6.866;2024-03-25T02:30:18;4.50;99.90
25128;DHT22;13107;51.304;6.866;2024-03-25T02:34:19;4.50;99.90
25128;DHT22;13107;51.304;6.866;2024-03-25T02:38:20;4.40;99.90
25128;DHT22;13107;51.304;6.866;2024-03-25T02:42:21;4.40;99.90
25128;DHT22;13107;51.304;6.866;2024-03-25T02:46:22;4.50;99.90
25128;DHT22;13107;51.304;6.866;2024-03-25T02:50:23;4.40;99.90
25128;DHT22;13107;51.304;6.866;2024-03-25T02:54:24;4.20;99.90
25128;DHT22;13107;51.304;6.866;2024-03-25T02:58:25;4.20;99.90
25128;DHT22;13107;51.304;6.866;2024-03-25T03:02:26;4.20;99.90
25128;DHT22;13107;51.304;6.866;2024-03-25T03:06:26;4.10;99.90
25128;DHT22;13107;51.304;6.866;2024-03-25T03:10:27;4.10;99.90
25128;DHT22;13107;51.304;6.866;2024-03-25T03:14:28;4.20;99.90
25128;DHT22;13107;51.304;6.866;2024-03-25T03:18:29;4.10;99.90
25128;DHT22;13107;51.304;6.866;2024-03-25T03:22:30;4.00;99.90
25128;DHT22;13107;51.304;6.866;2024-03-25T03:26:31;4.10;99.90
25128;DHT22;13107;51.304;6.866;2024-03-25T03:30:32;4.00;99.90
25128;DHT22;13107;51.304;6.866;2024-03-25T03:34:33;3.90;99.90
25128;DHT22;13107;51.304;6.866;2024-03-25T03:38:34;3.80;99.90
25128;DHT22;13107;51.304;6.866;2024-03-25T03:42:34;3.80;99.90
25128;DHT22;13107;51.304;6.866;2024-03-25T03:46:35;3.80;99.90
25128;DHT22;13107;51.304;6.866;2024-03-25T03:50:36;3.70;99.90
25128;DHT22;13107;51.304;6.866;2024-03-25T03:54:37;3.80;99.90
25128;DHT22;13107;51.304;6.866;2024-03-25T03:58:38;3.90;99.90
25128;DHT22;13107;51.304;6.866;2024-03-25T04:02:39;4.00;99.90
25128;DHT22;13107;51.304;6.866;2024-03-25T04:06:40;4.10;99.90
25128;DHT22;13107;51.304;6.866;2024-03-25T04:10:41;4.20;99.90
25128;DHT22;13107;51.304;6.866;2024-03-25T04:14:42;4.20;99.90
25128;DHT22;13107;51.304;6.866;2024-03-25T04:18:43;4.30;99.90
25128;DHT22;13107;51.304;6.866;2024-03-25T04:22:47;4.40;99.90
25128;DHT22;13107;51.304;6.866;2024-03-25T04:26:48;4.40;99.90
25128;DHT22;13107;51.304;6.866;2024-03-25T04:30:53;4.40;99.90
25128;DHT22;13107;51.304;6.866;2024-03-25T04:34:54;4.50;99.90
25128;DHT22;13107;51.304;6.866;2024-03-25T04:38:55;4.40;99.90
25128;DHT22;13107;51.304;6.866;2024-03-25T04:42:56;4.60;99.90
25128;DHT22;13107;51.304;6.866;2024-03-25T04:46:56;4.60;99.90
25128;DHT22;13107;51.304;6.866;2024-03-25T04:50:58;4.60;99.90
25128;DHT22;13107;51.304;6.866;2024-03-25T04:54:59;4.60;99.90
25128;DHT22;13107;51.304;6.866;2024-03-25T04:59:00;4.70;99.90
25128;DHT22;13107;51.304;6.866;2024-03-25T05:03:02;4.70;99.90
25128;DHT22;13107;51.304;6.866;2024-03-25T05:07:03;4.80;99.90
25128;DHT22;13107;51.304;6.866;2024-03-25T05:11:04;4.80;99.90
25128;DHT22;13107;51.304;6.866;2024-03-25T05:15:05;4.80;99.90
25128;DHT22;13107;51.304;6.866;2024-03-25T05:19:06;4.80;99.90
25128;DHT22;13107;51.304;6.866;2024-03-25T05:23:07;4.80;99.90
25128;DHT22;13107;51.304;6.866;2024-03-25T05:27:08;4.80;99.90
25128;DHT22;13107;51.304;6.866;2024-03-25T05:31:09;4.90;99.90
25128;DHT22;13107;51.304;6.866;2024-03-25T05:35:10;4.90;99.90
25128;DHT22;13107;51.304;6.866;2024-03-25T05:39:11;4.90;99.90
25128;DHT22;13107;51.304;6.866;2024-03-25T05:43:12;4.90;99.90
25128;DHT22;13107;51.304;6.866;2024-03-25T05:47:14;4.90;99.90
25128;DHT22;13107;51.304;6.866;2024-03-25T05:51:15;5.00;99.90
25128;DHT22;13107;51.304;6.866;2024-03-25T05:55:16;5.00;99.90
25128;DHT22;13107;51.304;6.866;2024-03-25T05:59:16;5.10;99.90
25128;DHT22;13107;51.304;6.866;2024-03-25T06:03:18;5.00;99.90
25128;DHT22;13107;51.304;6.866;2024-03-25T06:07:19;5.20;99.90
25128;DHT22;13107;51.304;6.866;2024-03-25T06:11:20;5.20;99.90
25128;DHT22;13107;51.304;6.866;2024-03-25T06:15:21;5.20;99.90
25128;DHT22;13107;51.304;6.866;2024-03-25T06:19:22;5.30;99.90
25128;DHT22;13107;51.304;6.866;2024-03-25T06:23:27;5.30;99.90
25128;DHT22;13107;51.304;6.866;2024-03-25T06:27:28;5.40;99.90
25128;DHT22;13107;51.304;6.866;2024-03-25T06:31:32;5.40;99.90
25128;DHT22;13107;51.304;6.866;2024-03-25T06:35:51;5.50;99.90
25128;DHT22;13107;51.304;6.866;2024-03-25T06:39:55;5.60;99.90
25128;DHT22;13107;51.304;6.866;2024-03-25T06:43:56;5.80;99.90
25128;DHT22;13107;51.304;6.866;2024-03-25T06:47:57;5.80;99.90
25128;DHT22;13107;51.304;6.866;2024-03-25T06:51:58;5.90;99.90
25128;DHT22;13107;51.304;6.866;2024-03-25T06:55:59;5.90;99.90
25128;DHT22;13107;51.304;6.866;2024-03-25T07:00:00;6.00;99.90
25128;DHT22;13107;51.304;6.866;2024-03-25T07:04:01;6.10;99.90
25128;DHT22;13107;51.304;6.866;2024-03-25T07:08:02;6.20;99.90
25128;DHT22;13107;51.304;6.866;2024-03-25T07:12:03;6.30;99.90
25128;DHT22;13107;51.304;6.866;2024-03-25T07:16:04;6.40;99.90
25128;DHT22;13107;51.304;6.866;2024-03-25T07:20:05;6.50;99.90
25128;DHT22;13107;51.304;6.866;2024-03-25T07:24:08;6.40;99.90
25128;DHT22;13107;51.304;6.866;2024-03-25T07:28:09;6.60;99.90
25128;DHT22;13107;51.304;6.866;2024-03-25T07:32:10;6.70;99.90
25128;DHT22;13107;51.304;6.866;2024-03-25T07:36:11;6.70;99.90
25128;DHT22;13107;51.304;6.866;2024-03-25T07:40:12;6.60;99.90
25128;DHT22;13107;51.304;6.866;2024-03-25T07:44:13;6.60;99.90
25128;DHT22;13107;51.304;6.866;2024-03-25T07:48:14;6.70;99.90
25128;DHT22;13107;51.304;6.866;2024-03-25T07:52:14;6.70;99.90
25128;DHT22;13107;51.304;6.866;2024-03-25T07:56:15;6.80;99.90
25128;DHT22;13107;51.304;6.866;2024-03-25T08:00:16;6.70;99.90
25128;DHT22;13107;51.304;6.866;2024-03-25T08:04:17;6.80;99.90
25128;DHT22;13107;51.304;6.866;2024-03-25T08:08:18;6.80;99.90
25128;DHT22;13107;51.304;6.866;2024-03-25T08:12:19;7.10;99.90
25128;DHT22;13107;51.304;6.866;2024-03-25T08:16:20;7.60;99.90
25128;DHT22;13107;51.304;6.866;2024-03-25T08:20:22;8.70;99.90
25128;DHT22;13107;51.304;6.866;2024-03-25T08:24:23;9.70;99.90
25128;DHT22;13107;51.304;6.866;2024-03-25T08:28:23;10.50;99.90
25128;DHT22;13107;51.304;6.866;2024-03-25T08:32:24;9.90;99.90
25128;DHT22;13107;51.304;6.866;2024-03-25T08:36:25;9.60;99.90
25128;DHT22;13107;51.304;6.866;2024-03-25T08:40:26;10.70;99.90
25128;DHT22;13107;51.304;6.866;2024-03-25T08:44:27;11.50;99.90
25128;DHT22;13107;51.304;6.866;2024-03-25T08:48:27;11.90;99.90
25128;DHT22;13107;51.304;6.866;2024-03-25T08:52:28;11.60;99.90
25128;DHT22;13107;51.304;6.866;2024-03-25T08:56:29;10.90;99.90
25128;DHT22;13107;51.304;6.866;2024-03-25T09:00:30;10.40;99.90
25128;DHT22;13107;51.304;6.866;2024-03-25T09:04:30;10.50;99.90
25128;DHT22;13107;51.304;6.866;2024-03-25T09:08:31;10.00;99.90
25128;DHT22;13107;51.304;6.866;2024-03-25T09:12:52;9.70;99.90
25128;DHT22;13107;51.304;6.866;2024-03-25T09:16:53;9.40;99.90
25128;DHT22;13107;51.304;6.866;2024-03-25T09:20:54;9.10;99.90
25128;DHT22;13107;51.304;6.866;2024-03-25T09:24:56;9.50;99.90
25128;DHT22;13107;51.304;6.866;2024-03-25T09:28:57;10.70;99.90
25128;DHT22;13107;51.304;6.866;2024-03-25T09:32:57;12.20;99.90
25128;DHT22;13107;51.304;6.866;2024-03-25T09:36:58;13.00;99.90
25128;DHT22;13107;51.304;6.866;2024-03-25T09:40:59;14.00;99.90
25128;DHT22;13107;51.304;6.866;2024-03-25T09:45:01;13.60;99.90
25128;DHT22;13107;51.304;6.866;2024-03-25T09:49:02;14.30;99.90
25128;DHT22;13107;51.304;6.866;2024-03-25T09:53:05;13.60;99.90
25128;DHT22;13107;51.304;6.866;2024-03-25T09:57:06;13.60;99.90
25128;DHT22;13107;51.304;6.866;2024-03-25T10:01:08;13.80;99.90
25128;DHT22;13107;51.304;6.866;2024-03-25T10:05:09;14.90;99.90
25128;DHT22;13107;51.304;6.866;2024-03-25T10:09:10;15.20;99.20
25128;DHT22;13107;51.304;6.866;2024-03-25T10:13:11;15.00;99.90
25128;DHT22;13107;51.304;6.866;2024-03-25T10:17:12;14.10;99.90
25128;DHT22;13107;51.304;6.866;2024-03-25T10:21:13;12.90;99.90
25128;DHT22;13107;51.304;6.866;2024-03-25T10:25:22;12.10;99.90
25128;DHT22;13107;51.304;6.866;2024-03-25T10:29:25;11.80;99.90
25128;DHT22;13107;51.304;6.866;2024-03-25T10:33:26;11.60;99.90
25128;DHT22;13107;51.304;6.866;2024-03-25T10:37:27;11.60;99.90
25128;DHT22;13107;51.304;6.866;2024-03-25T10:41:28;12.40;99.90
25128;DHT22;13107;51.304;6.866;2024-03-25T10:45:30;13.50;99.90
25128;DHT22;13107;51.304;6.866;2024-03-25T10:53:52;13.20;99.90
25128;DHT22;13107;51.304;6.866;2024-03-25T10:57:55;12.70;99.90
25128;DHT22;13107;51.304;6.866;2024-03-25T11:01:56;12.50;99.90
25128;DHT22;13107;51.304;6.866;2024-03-25T11:05:57;12.90;99.90
25128;DHT22;13107;51.304;6.866;2024-03-25T11:10:06;13.00;99.90
25128;DHT22;13107;51.304;6.866;2024-03-25T11:14:16;13.10;99.90
25128;DHT22;13107;51.304;6.866;2024-03-25T11:18:18;13.10;99.90
25128;DHT22;13107;51.304;6.866;2024-03-25T11:22:24;12.80;99.90
25128;DHT22;13107;51.304;6.866;2024-03-25T11:26:26;13.60;99.90
25128;DHT22;13107;51.304;6.866;2024-03-25T11:30:31;13.90;99.90
25128;DHT22;13107;51.304;6.866;2024-03-25T11:34:32;13.80;99.90
25128;DHT22;13107;51.304;6.866;2024-03-25T11:38:33;15.10;97.60
25128;DHT22;13107;51.304;6.866;2024-03-25T11:42:35;14.80;98.20
25128;DHT22;13107;51.304;6.866;2024-03-25T11:46:37;14.20;99.60
25128;DHT22;13107;51.304;6.866;2024-03-25T11:50:38;13.00;99.90
25128;DHT22;13107;51.304;6.866;2024-03-25T11:54:39;13.50;99.90
25128;DHT22;13107;51.304;6.866;2024-03-25T11:58:39;13.80;99.90
25128;DHT22;13107;51.304;6.866;2024-03-25T12:02:45;13.70;99.90
25128;DHT22;13107;51.304;6.866;2024-03-25T12:06:46;14.20;99.20
25128;DHT22;13107;51.304;6.866;2024-03-25T12:10:47;14.10;99.90
25128;DHT22;13107;51.304;6.866;2024-03-25T12:15:06;13.60;99.90
25128;DHT22;13107;51.304;6.866;2024-03-25T12:19:07;13.90;99.90
25128;DHT22;13107;51.304;6.866;2024-03-25T12:23:08;14.60;99.70
25128;DHT22;13107;51.304;6.866;2024-03-25T12:27:09;14.50;98.00
25128;DHT22;13107;51.304;6.866;2024-03-25T12:31:10;14.80;99.50
25128;DHT22;13107;51.304;6.866;2024-03-25T12:35:17;15.20;94.60
25128;DHT22;13107;51.304;6.866;2024-03-25T12:39:18;14.60;94.00
25128;DHT22;13107;51.304;6.866;2024-03-25T12:43:19;14.30;99.00
25128;DHT22;13107;51.304;6.866;2024-03-25T12:47:20;13.70;95.20
25128;DHT22;13107;51.304;6.866;2024-03-25T12:51:21;13.30;96.60
25128;DHT22;13107;51.304;6.866;2024-03-25T12:55:22;13.50;96.90
25128;DHT22;13107;51.304;6.866;2024-03-25T12:59:23;14.00;98.00
25128;DHT22;13107;51.304;6.866;2024-03-25T13:03:24;14.30;96.80
25128;DHT22;13107;51.304;6.866;2024-03-25T13:07:25;14.90;93.70
25128;DHT22;13107;51.304;6.866;2024-03-25T13:11:26;14.50;93.30
25128;DHT22;13107;51.304;6.866;2024-03-25T13:15:27;14.80;93.60
25128;DHT22;13107;51.304;6.866;2024-03-25T13:19:28;14.00;92.40
25128;DHT22;13107;51.304;6.866;2024-03-25T13:23:29;14.30;92.80
25128;DHT22;13107;51.304;6.866;2024-03-25T13:27:30;14.90;91.70
25128;DHT22;13107;51.304;6.866;2024-03-25T13:31:31;15.00;91.40
25128;DHT22;13107;51.304;6.866;2024-03-25T13:35:32;14.70;90.80
25128;DHT22;13107;51.304;6.866;2024-03-25T13:39:33;14.40;89.20
25128;DHT22;13107;51.304;6.866;2024-03-25T13:43:33;14.60;91.30
25128;DHT22;13107;51.304;6.866;2024-03-25T13:47:34;14.60;89.00
25128;DHT22;13107;51.304;6.866;2024-03-25T13:51:35;14.30;88.60
25128;DHT22;13107;51.304;6.866;2024-03-25T13:55:36;14.30;89.80
25128;DHT22;13107;51.304;6.866;2024-03-25T13:59:37;13.90;89.80
25128;DHT22;13107;51.304;6.866;2024-03-25T14:03:38;13.40;88.80
25128;DHT22;13107;51.304;6.866;2024-03-25T14:07:39;13.50;87.10
25128;DHT22;13107;51.304;6.866;2024-03-25T14:11:40;14.30;89.40
25128;DHT22;13107;51.304;6.866;2024-03-25T14:15:41;14.80;84.10
25128;DHT22;13107;51.304;6.866;2024-03-25T14:19:41;15.00;83.70
25128;DHT22;13107;51.304;6.866;2024-03-25T14:23:42;15.30;81.70
25128;DHT22;13107;51.304;6.866;2024-03-25T14:27:44;15.20;73.40
25128;DHT22;13107;51.304;6.866;2024-03-25T14:31:45;14.90;74.70
25128;DHT22;13107;51.304;6.866;2024-03-25T14:35:45;14.90;77.40
25128;DHT22;13107;51.304;6.866;2024-03-25T14:39:46;14.60;75.90
25128;DHT22;13107;51.304;6.866;2024-03-25T14:43:47;14.90;76.30
25128;DHT22;13107;51.304;6.866;2024-03-25T14:47:51;15.10;81.10
25128;DHT22;13107;51.304;6.866;2024-03-25T14:51:52;15.00;75.20
25128;DHT22;13107;51.304;6.866;2024-03-25T14:55:53;14.00;79.50
25128;DHT22;13107;51.304;6.866;2024-03-25T14:59:54;13.90;86.80
25128;DHT22;13107;51.304;6.866;2024-03-25T15:03:54;13.50;89.60
25128;DHT22;13107;51.304;6.866;2024-03-25T15:07:55;13.20;87.20
25128;DHT22;13107;51.304;6.866;2024-03-25T15:11:56;12.60;89.90
25128;DHT22;13107;51.304;6.866;2024-03-25T15:15:57;12.70;85.70
25128;DHT22;13107;51.304;6.866;2024-03-25T15:19:58;12.80;87.20
25128;DHT22;13107;51.304;6.866;2024-03-25T15:23:59;12.70;86.60
25128;DHT22;13107;51.304;6.866;2024-03-25T15:28:00;12.80;90.10
25128;DHT22;13107;51.304;6.866;2024-03-25T15:32:01;12.20;87.20
25128;DHT22;13107;51.304;6.866;2024-03-25T15:36:02;11.90;88.50
25128;DHT22;13107;51.304;6.866;2024-03-25T15:40:03;11.80;90.70
25128;DHT22;13107;51.304;6.866;2024-03-25T15:44:04;12.00;92.00
25128;DHT22;13107;51.304;6.866;2024-03-25T15:48:07;12.10;86.60
25128;DHT22;13107;51.304;6.866;2024-03-25T15:52:12;11.90;87.50
25128;DHT22;13107;51.304;6.866;2024-03-25T15:56:13;11.90;85.80
25128;DHT22;13107;51.304;6.866;2024-03-25T16:00:14;11.70;91.00
25128;DHT22;13107;51.304;6.866;2024-03-25T16:04:14;11.80;91.50
25128;DHT22;13107;51.304;6.866;2024-03-25T16:08:15;11.60;90.40
25128;DHT22;13107;51.304;6.866;2024-03-25T16:12:16;11.20;90.90
25128;DHT22;13107;51.304;6.866;2024-03-25T16:16:17;11.30;91.70
25128;DHT22;13107;51.304;6.866;2024-03-25T16:20:18;11.40;93.40
25128;DHT22;13107;51.304;6.866;2024-03-25T16:24:20;11.10;90.80
25128;DHT22;13107;51.304;6.866;2024-03-25T16:28:21;11.00;92.20
25128;DHT22;13107;51.304;6.866;2024-03-25T16:32:22;11.30;94.60
25128;DHT22;13107;51.304;6.866;2024-03-25T16:36:23;11.20;90.80
25128;DHT22;13107;51.304;6.866;2024-03-25T16:40:24;11.20;89.60
25128;DHT22;13107;51.304;6.866;2024-03-25T16:44:25;11.10;91.90
25128;DHT22;13107;51.304;6.866;2024-03-25T16:48:26;10.90;92.90
25128;DHT22;13107;51.304;6.866;2024-03-25T16:52:27;10.60;92.70
25128;DHT22;13107;51.304;6.866;2024-03-25T16:56:28;10.50;93.00
25128;DHT22;13107;51.304;6.866;2024-03-25T17:00:28;10.40;94.90
25128;DHT22;13107;51.304;6.866;2024-03-25T17:04:29;10.40;95.30
25128;DHT22;13107;51.304;6.866;2024-03-25T17:08:30;10.30;96.90
25128;DHT22;13107;51.304;6.866;2024-03-25T17:12:31;10.30;97.10
25128;DHT22;13107;51.304;6.866;2024-03-25T17:16:32;10.10;95.80
25128;DHT22;13107;51.304;6.866;2024-03-25T17:20:33;9.90;97.50
25128;DHT22;13107;51.304;6.866;2024-03-25T17:24:35;9.80;98.40
25128;DHT22;13107;51.304;6.866;2024-03-25T17:28:36;9.70;97.40
25128;DHT22;13107;51.304;6.866;2024-03-25T17:32:37;9.50;97.70
25128;DHT22;13107;51.304;6.866;2024-03-25T17:36:38;9.40;99.30
25128;DHT22;13107;51.304;6.866;2024-03-25T17:40:39;9.30;99.90
25128;DHT22;13107;51.304;6.866;2024-03-25T17:44:39;9.10;99.90
25128;DHT22;13107;51.304;6.866;2024-03-25T17:48:40;9.00;99.90
25128;DHT22;13107;51.304;6.866;2024-03-25T17:52:42;8.80;99.90
25128;DHT22;13107;51.304;6.866;2024-03-25T17:56:44;8.70;99.90
25128;DHT22;13107;51.304;6.866;2024-03-25T18:00:45;8.50;99.90
25128;DHT22;13107;51.304;6.866;2024-03-25T18:04:46;8.40;99.90
25128;DHT22;13107;51.304;6.866;2024-03-25T18:08:47;8.30;99.90
25128;DHT22;13107;51.304;6.866;2024-03-25T18:12:47;8.30;99.90
25128;DHT22;13107;51.304;6.866;2024-03-25T18:16:49;8.20;99.90
25128;DHT22;13107;51.304;6.866;2024-03-25T18:20:49;8.10;99.90
25128;DHT22;13107;51.304;6.866;2024-03-25T18:24:50;7.90;99.90
25128;DHT22;13107;51.304;6.866;2024-03-25T18:28:51;7.80;99.90
25128;DHT22;13107;51.304;6.866;2024-03-25T18:32:52;7.70;99.90
25128;DHT22;13107;51.304;6.866;2024-03-25T18:36:53;7.60;99.90
25128;DHT22;13107;51.304;6.866;2024-03-25T18:40:54;7.60;99.90
25128;DHT22;13107;51.304;6.866;2024-03-25T18:44:55;7.60;99.90
25128;DHT22;13107;51.304;6.866;2024-03-25T18:48:55;7.60;99.90
25128;DHT22;13107;51.304;6.866;2024-03-25T18:52:56;7.50;99.90
25128;DHT22;13107;51.304;6.866;2024-03-25T18:56:57;7.50;99.90
25128;DHT22;13107;51.304;6.866;2024-03-25T19:00:58;7.60;99.90
25128;DHT22;13107;51.304;6.866;2024-03-25T19:04:59;7.60;99.90
25128;DHT22;13107;51.304;6.866;2024-03-25T19:08:59;7.60;99.90
25128;DHT22;13107;51.304;6.866;2024-03-25T19:13:00;7.60;99.90
25128;DHT22;13107;51.304;6.866;2024-03-25T19:17:01;7.60;99.90
25128;DHT22;13107;51.304;6.866;2024-03-25T19:21:02;7.60;99.90
25128;DHT22;13107;51.304;6.866;2024-03-25T19:25:03;7.60;99.90
25128;DHT22;13107;51.304;6.866;2024-03-25T19:29:05;7.50;99.90
25128;DHT22;13107;51.304;6.866;2024-03-25T19:33:05;7.50;99.90
25128;DHT22;13107;51.304;6.866;2024-03-25T19:37:06;7.50;99.90
25128;DHT22;13107;51.304;6.866;2024-03-25T19:41:07;7.50;99.90
25128;DHT22;13107;51.304;6.866;2024-03-25T19:45:08;7.50;99.90
25128;DHT22;13107;51.304;6.866;2024-03-25T19:49:09;7.50;99.90
25128;DHT22;13107;51.304;6.866;2024-03-25T19:53:11;7.50;99.90
25128;DHT22;13107;51.304;6.866;2024-03-25T19:57:12;7.40;99.90
25128;DHT22;13107;51.304;6.866;2024-03-25T20:01:13;7.40;99.90
25128;DHT22;13107;51.304;6.866;2024-03-25T20:05:14;7.30;99.90
25128;DHT22;13107;51.304;6.866;2024-03-25T20:09:15;7.30;99.90
25128;DHT22;13107;51.304;6.866;2024-03-25T20:13:16;7.30;99.90
25128;DHT22;13107;51.304;6.866;2024-03-25T20:17:17;7.30;99.90
25128;DHT22;13107;51.304;6.866;2024-03-25T20:21:17;7.30;99.90
25128;DHT22;13107;51.304;6.866;2024-03-25T20:25:18;7.30;99.90
25128;DHT22;13107;51.304;6.866;2024-03-25T20:29:19;7.20;99.90
25128;DHT22;13107;51.304;6.866;2024-03-25T20:33:20;7.20;99.90
25128;DHT22;13107;51.304;6.866;2024-03-25T20:37:21;7.20;99.90
25128;DHT22;13107;51.304;6.866;2024-03-25T20:41:21;7.20;99.90
25128;DHT22;13107;51.304;6.866;2024-03-25T20:45:22;7.20;99.90
25128;DHT22;13107;51.304;6.866;2024-03-25T20:49:23;7.20;99.90
25128;DHT22;13107;51.304;6.866;2024-03-25T20:53:24;7.10;99.90
25128;DHT22;13107;51.304;6.866;2024-03-25T20:57:25;7.10;99.90
25128;DHT22;13107;51.304;6.866;2024-03-25T21:01:26;7.10;99.90
25128;DHT22;13107;51.304;6.866;2024-03-25T21:05:26;7.00;99.90
25128;DHT22;13107;51.304;6.866;2024-03-25T21:09:27;7.00;99.90
25128;DHT22;13107;51.304;6.866;2024-03-25T21:13:28;6.90;99.90
25128;DHT22;13107;51.304;6.866;2024-03-25T21:17:29;6.90;99.90
25128;DHT22;13107;51.304;6.866;2024-03-25T21:21:30;6.90;99.90
25128;DHT22;13107;51.304;6.866;2024-03-25T21:25:31;6.80;99.90
25128;DHT22;13107;51.304;6.866;2024-03-25T21:29:32;6.80;99.90
25128;DHT22;13107;51.304;6.866;2024-03-25T21:33:33;6.80;99.90
25128;DHT22;13107;51.304;6.866;2024-03-25T21:37:34;6.70;99.90
25128;DHT22;13107;51.304;6.866;2024-03-25T21:41:35;6.70;99.90
25128;DHT22;13107;51.304;6.866;2024-03-25T21:45:36;6.70;99.90
25128;DHT22;13107;51.304;6.866;2024-03-25T21:49:37;6.70;99.90
25128;DHT22;13107;51.304;6.866;2024-03-25T21:53:37;6.60;99.90
25128;DHT22;13107;51.304;6.866;2024-03-25T21:57:38;6.60;99.90
25128;DHT22;13107;51.304;6.866;2024-03-25T22:01:39;6.60;99.90
25128;DHT22;13107;51.304;6.866;2024-03-25T22:05:40;6.60;99.90
25128;DHT22;13107;51.304;6.866;2024-03-25T22:09:42;6.60;99.90
25128;DHT22;13107;51.304;6.866;2024-03-25T22:13:42;6.50;99.90
25128;DHT22;13107;51.304;6.866;2024-03-25T22:17:43;6.40;99.90
25128;DHT22;13107;51.304;6.866;2024-03-25T22:21:44;6.30;99.90
25128;DHT22;13107;51.304;6.866;2024-03-25T22:25:45;6.20;99.90
25128;DHT22;13107;51.304;6.866;2024-03-25T22:29:49;6.30;99.90
25128;DHT22;13107;51.304;6.866;2024-03-25T22:33:50;6.30;99.90
25128;DHT22;13107;51.304;6.866;2024-03-25T22:37:51;6.20;99.90
25128;DHT22;13107;51.304;6.866;2024-03-25T22:41:52;6.20;99.90
25128;DHT22;13107;51.304;6.866;2024-03-25T22:46:00;6.30;99.90
25128;DHT22;13107;51.304;6.866;2024-03-25T22:50:01;6.30;99.90
25128;DHT22;13107;51.304;6.866;2024-03-25T22:54:02;6.40;99.90
25128;DHT22;13107;51.304;6.866;2024-03-25T22:58:03;6.40;99.90
25128;DHT22;13107;51.304;6.866;2024-03-25T23:02:04;6.40;99.90
25128;DHT22;13107;51.304;6.866;2024-03-25T23:06:05;6.40;99.90
25128;DHT22;13107;51.304;6.866;2024-03-25T23:10:07;6.40;99.90
25128;DHT22;13107;51.304;6.866;2024-03-25T23:14:08;6.40;99.90
25128;DHT22;13107;51.304;6.866;2024-03-25T23:18:09;6.30;99.90
25128;DHT22;13107;51.304;6.866;2024-03-25T23:22:10;6.20;99.90
25128;DHT22;13107;51.304;6.866;2024-03-25T23:26:10;6.20;99.90
25128;DHT22;13107;51.304;6.866;2024-03-25T23:30:13;6.20;99.90
25128;DHT22;13107;51.304;6.866;2024-03-25T23:34:13;6.10;99.90
25128;DHT22;13107;51.304;6.866;2024-03-25T23:38:14;6.10;99.90
25128;DHT22;13107;51.304;6.866;2024-03-25T23:42:15;6.00;99.90
25128;DHT22;13107;51.304;6.866;2024-03-25T23:46:16;5.90;99.90
25128;DHT22;13107;51.304;6.866;2024-03-25T23:50:17;5.90;99.90
25128;DHT22;13107;51.304;6.866;2024-03-25T23:54:18;5.90;99.90
25128;DHT22;13107;51.304;6.866;2024-03-25T23:58:19;5.90;99.90
